createdAt,value
2018-06-13T00:00:37.803Z,13.2
2018-06-13T00:01:38.858Z,13.2
2018-06-13T00:02:39.530Z,13.2
2018-06-13T00:03:40.802Z,13.2
2018-06-13T00:04:41.807Z,13.2
2018-06-13T00:05:42.799Z,13.2
2018-06-13T00:06:43.821Z,13.2
2018-06-13T00:07:44.796Z,13.2
2018-06-13T00:08:45.795Z,13.2
2018-06-13T00:09:46.789Z,13.2
2018-06-13T00:10:47.794Z,13.2
2018-06-13T00:11:48.940Z,13.2
2018-06-13T00:12:49.518Z,13.2
2018-06-13T00:13:50.787Z,13.2
2018-06-13T00:14:51.782Z,13.2
2018-06-13T00:15:52.808Z,13.2
2018-06-13T00:16:54.136Z,13.2
2018-06-13T00:17:54.784Z,13.2
2018-06-13T00:18:55.780Z,13.2
2018-06-13T00:19:56.777Z,13.2
2018-06-13T00:20:57.783Z,13.2
2018-06-13T00:21:58.779Z,13.2
2018-06-13T00:22:59.775Z,13.2
2018-06-13T00:24:00.783Z,13.2
2018-06-13T00:25:01.777Z,13.2
2018-06-13T00:26:02.777Z,13.2
2018-06-13T00:27:03.937Z,13.2
2018-06-13T00:28:04.783Z,13.2
2018-06-13T00:29:05.773Z,13.2
2018-06-13T00:30:06.779Z,13.2
2018-06-13T00:31:07.768Z,13.2
2018-06-13T00:32:08.788Z,13.2
2018-06-13T00:33:09.770Z,13.2
2018-06-13T00:34:10.767Z,13.2
2018-06-13T00:35:11.762Z,13.2
2018-06-13T00:36:12.764Z,13.2
2018-06-13T00:37:14.043Z,13.2
2018-06-13T00:38:14.770Z,13.2
2018-06-13T00:39:15.761Z,13.2
2018-06-13T00:40:16.761Z,13.2
2018-06-13T00:41:17.772Z,13.2
2018-06-13T00:42:18.823Z,13.2
2018-06-13T00:43:19.758Z,13.2
2018-06-13T00:44:20.748Z,13.2
2018-06-13T00:45:21.748Z,13.2
2018-06-13T00:46:22.838Z,13.2
2018-06-13T00:47:24.097Z,13.2
2018-06-13T00:48:24.754Z,13.2
2018-06-13T00:49:25.741Z,13.2
2018-06-13T00:50:26.747Z,13.2
2018-06-13T00:51:27.744Z,13.2
2018-06-13T00:52:28.894Z,13.2
2018-06-13T00:53:29.743Z,13.2
2018-06-13T00:54:30.745Z,13.2
2018-06-13T00:55:31.744Z,13.2
2018-06-13T00:56:32.741Z,13.2
2018-06-13T00:57:33.747Z,13.2
2018-06-13T00:58:34.740Z,13.2
2018-06-13T00:59:35.731Z,13.2
2018-06-13T01:00:36.735Z,13.2
2018-06-13T01:01:37.729Z,13.2
2018-06-13T01:02:39.089Z,13.2
2018-06-13T01:03:39.734Z,13.2
2018-06-13T01:04:40.727Z,13.2
2018-06-13T01:05:41.734Z,13.2
2018-06-13T01:06:42.722Z,13.2
2018-06-13T01:07:43.723Z,13.2
2018-06-13T01:08:44.724Z,13.2
2018-06-13T01:09:45.728Z,13.2
2018-06-13T01:10:46.725Z,13.2
2018-06-13T01:11:47.733Z,13.2
2018-06-13T01:12:49.071Z,13.2
2018-06-13T01:13:49.715Z,13.2
2018-06-13T01:14:50.721Z,13.2
2018-06-13T01:15:51.720Z,13.2
2018-06-13T01:16:52.714Z,13.2
2018-06-13T01:17:53.727Z,13.2
2018-06-13T01:18:54.709Z,13.2
2018-06-13T01:19:55.711Z,13.2
2018-06-13T01:20:56.707Z,13.2
2018-06-13T01:21:57.709Z,13.2
2018-06-13T01:22:58.760Z,13.2
2018-06-13T01:23:59.705Z,13.2
2018-06-13T01:25:00.705Z,13.2
2018-06-13T01:26:01.712Z,13.2
2018-06-13T01:27:02.716Z,13.2
2018-06-13T01:28:03.705Z,13.2
2018-06-13T01:29:04.696Z,13.2
2018-06-13T01:30:05.704Z,13.2
2018-06-13T01:31:06.701Z,13.2
2018-06-13T01:32:07.695Z,13.2
2018-06-13T01:33:08.697Z,13.2
2018-06-13T01:34:09.700Z,13.2
2018-06-13T01:35:10.695Z,13.2
2018-06-13T01:36:11.698Z,13.2
2018-06-13T01:37:12.693Z,13.2
2018-06-13T01:38:13.694Z,13.2
2018-06-13T01:39:14.692Z,13.2
2018-06-13T01:40:15.684Z,13.2
2018-06-13T01:41:16.695Z,13.2
2018-06-13T01:42:17.699Z,13.2
2018-06-13T01:43:18.782Z,13.2
2018-06-13T01:44:19.681Z,13.2
2018-06-13T01:45:20.682Z,13.2
2018-06-13T01:46:21.680Z,13.2
2018-06-13T01:47:22.694Z,13.2
2018-06-13T01:48:23.727Z,13.2
2018-06-13T01:49:24.679Z,13.2
2018-06-13T01:50:25.676Z,13.2
2018-06-13T01:51:26.680Z,13.2
2018-06-13T01:52:27.677Z,13.2
2018-06-13T01:53:29.022Z,13.2
2018-06-13T01:54:29.680Z,13.2
2018-06-13T01:55:30.672Z,13.2
2018-06-13T01:56:31.679Z,13.2
2018-06-13T01:57:32.666Z,13.2
2018-06-13T01:58:33.811Z,13.2
2018-06-13T01:59:34.663Z,13.2
2018-06-13T02:00:35.668Z,13.2
2018-06-13T02:01:36.673Z,13.2
2018-06-13T02:02:37.664Z,13.2
2018-06-13T02:03:38.807Z,13.2
2018-06-13T02:04:39.659Z,13.2
2018-06-13T02:05:40.662Z,13.2
2018-06-13T02:06:41.656Z,13.2
2018-06-13T02:07:42.655Z,13.2
2018-06-13T02:08:43.659Z,13.2
2018-06-13T02:09:44.669Z,13.2
2018-06-13T02:10:45.653Z,13.2
2018-06-13T02:11:46.650Z,13.2
2018-06-13T02:12:47.654Z,13.2
2018-06-13T02:13:48.709Z,13.2
2018-06-13T02:14:49.650Z,13.2
2018-06-13T02:15:50.651Z,13.2
2018-06-13T02:16:51.655Z,13.2
2018-06-13T02:17:52.643Z,13.2
2018-06-13T02:18:53.699Z,13.2
2018-06-13T02:19:54.639Z,13.2
2018-06-13T02:20:55.645Z,13.2
2018-06-13T02:21:56.649Z,13.2
2018-06-13T02:22:57.638Z,13.2
2018-06-13T02:23:58.783Z,13.2
2018-06-13T02:24:59.367Z,13.2
2018-06-13T02:26:00.638Z,13.2
2018-06-13T02:27:01.647Z,13.2
2018-06-13T02:28:02.631Z,13.2
2018-06-13T02:29:03.367Z,13.2
2018-06-13T02:30:04.630Z,13.2
2018-06-13T02:31:05.636Z,13.2
2018-06-13T02:32:06.663Z,13.2
2018-06-13T02:33:07.646Z,13.2
2018-06-13T02:34:08.625Z,13.2
2018-06-13T02:35:09.635Z,13.2
2018-06-13T02:36:10.624Z,13.2
2018-06-13T02:37:11.623Z,13.2
2018-06-13T02:38:12.621Z,13.2
2018-06-13T02:39:13.771Z,13.2
2018-06-13T02:40:14.625Z,13.2
2018-06-13T02:41:15.614Z,13.2
2018-06-13T02:42:16.614Z,13.2
2018-06-13T02:43:17.617Z,13.2
2018-06-13T02:44:18.776Z,13.2
2018-06-13T02:45:19.610Z,13.2
2018-06-13T02:46:20.635Z,13.2
2018-06-13T02:47:21.610Z,13.2
2018-06-13T02:48:22.618Z,13.2
2018-06-13T02:49:23.758Z,13.2
2018-06-13T02:50:24.615Z,13.2
2018-06-13T02:51:25.610Z,13.2
2018-06-13T02:52:26.624Z,13.2
2018-06-13T02:53:27.609Z,13.2
2018-06-13T02:54:28.761Z,13.2
2018-06-13T02:55:29.604Z,13.2
2018-06-13T02:56:30.653Z,13.2
2018-06-13T02:57:31.614Z,13.2
2018-06-13T02:58:32.613Z,13.2
2018-06-13T02:59:33.702Z,13.2
2018-06-13T03:00:34.639Z,13.2
2018-06-13T03:01:35.591Z,13.2
2018-06-13T03:02:36.595Z,13.2
2018-06-13T03:03:37.592Z,13.2
2018-06-13T03:04:38.699Z,13.2
2018-06-13T03:05:39.611Z,13.2
2018-06-13T03:06:40.596Z,13.2
2018-06-13T03:07:41.598Z,13.2
2018-06-13T03:08:42.595Z,13.2
2018-06-13T03:09:43.942Z,13.2
2018-06-13T03:10:44.594Z,13.2
2018-06-13T03:11:45.607Z,13.3
2018-06-13T03:12:46.586Z,13.2
2018-06-13T03:13:47.581Z,13.2
2018-06-13T03:14:48.584Z,13.2
2018-06-13T03:15:49.579Z,13.2
2018-06-13T03:16:50.583Z,13.3
2018-06-13T03:17:52.505Z,13.3
2018-06-13T03:18:52.579Z,13.2
2018-06-13T03:19:53.572Z,13.3
2018-06-13T03:20:54.757Z,13.3
2018-06-13T03:21:55.567Z,13.3
2018-06-13T03:22:56.566Z,13.3
2018-06-13T03:23:58.507Z,13.3
2018-06-13T03:24:58.567Z,13.3
2018-06-13T03:25:59.573Z,13.3
2018-06-13T03:27:01.496Z,13.3
2018-06-13T03:28:01.569Z,13.3
2018-06-13T03:29:02.561Z,13.2
2018-06-13T03:30:03.609Z,13.3
2018-06-13T03:31:04.575Z,13.3
2018-06-13T03:32:05.569Z,13.3
2018-06-13T03:33:07.493Z,13.3
2018-06-13T03:34:07.559Z,13.3
2018-06-13T03:35:08.561Z,13.3
2018-06-13T03:36:09.556Z,13.3
2018-06-13T03:37:10.557Z,13.3
2018-06-13T03:38:11.549Z,13.3
2018-06-13T03:39:12.557Z,13.3
2018-06-13T03:40:13.604Z,13.3
2018-06-13T03:41:14.565Z,13.3
2018-06-13T03:42:15.550Z,13.3
2018-06-13T03:43:16.548Z,13.3
2018-06-13T03:44:17.560Z,13.3
2018-06-13T03:45:18.543Z,13.3
2018-06-13T03:46:19.547Z,13.3
2018-06-13T03:47:20.535Z,13.3
2018-06-13T03:48:21.540Z,13.3
2018-06-13T03:49:22.546Z,13.3
2018-06-13T03:50:23.691Z,13.3
2018-06-13T03:51:24.537Z,13.3
2018-06-13T03:52:25.534Z,13.3
2018-06-13T03:53:26.537Z,13.3
2018-06-13T03:54:27.536Z,13.3
2018-06-13T03:55:28.633Z,13.3
2018-06-13T03:56:29.529Z,13.3
2018-06-13T03:57:30.537Z,13.3
2018-06-13T03:58:31.538Z,13.3
2018-06-13T03:59:32.546Z,13.3
2018-06-13T04:00:33.676Z,13.3
2018-06-13T04:01:34.526Z,13.3
2018-06-13T04:02:35.525Z,13.3
2018-06-13T04:03:36.523Z,13.3
2018-06-13T04:04:37.542Z,13.3
2018-06-13T04:05:38.548Z,13.3
2018-06-13T04:06:39.525Z,13.3
2018-06-13T04:07:40.520Z,13.3
2018-06-13T04:08:41.528Z,13.3
2018-06-13T04:09:42.514Z,13.3
2018-06-13T04:10:43.669Z,13.3
2018-06-13T04:11:44.514Z,13.3
2018-06-13T04:12:45.530Z,13.3
2018-06-13T04:13:46.696Z,13.3
2018-06-13T04:14:47.517Z,13.3
2018-06-13T04:15:49.548Z,13.3
2018-06-13T04:16:49.509Z,13.3
2018-06-13T04:17:50.509Z,13.3
2018-06-13T04:18:51.503Z,13.3
2018-06-13T04:19:52.520Z,13.3
2018-06-13T04:20:53.666Z,13.3
2018-06-13T04:21:54.500Z,13.3
2018-06-13T04:22:55.512Z,13.3
2018-06-13T04:23:56.500Z,13.3
2018-06-13T04:24:57.503Z,13.3
2018-06-13T04:25:58.552Z,13.3
2018-06-13T04:26:59.494Z,13.3
2018-06-13T04:28:00.495Z,13.3
2018-06-13T04:29:01.507Z,13.4
2018-06-13T04:30:02.497Z,13.3
2018-06-13T04:31:03.569Z,13.3
2018-06-13T04:32:04.491Z,13.3
2018-06-13T04:33:05.485Z,13.3
2018-06-13T04:34:06.495Z,13.4
2018-06-13T04:35:07.488Z,13.4
2018-06-13T04:36:08.596Z,13.3
2018-06-13T04:37:09.484Z,13.3
2018-06-13T04:38:10.495Z,13.3
2018-06-13T04:39:11.209Z,13.4
2018-06-13T04:40:12.482Z,13.4
2018-06-13T04:41:13.526Z,13.3
2018-06-13T04:42:14.478Z,13.3
2018-06-13T04:43:15.478Z,13.4
2018-06-13T04:44:16.487Z,13.4
2018-06-13T04:45:17.474Z,13.4
2018-06-13T04:46:18.471Z,13.3
2018-06-13T04:47:19.202Z,13.3
2018-06-13T04:48:20.465Z,13.4
2018-06-13T04:49:21.466Z,13.4
2018-06-13T04:50:22.200Z,13.4
2018-06-13T04:51:23.577Z,13.4
2018-06-13T04:52:24.472Z,13.5
2018-06-13T04:53:25.474Z,13.5
2018-06-13T04:54:26.458Z,13.5
2018-06-13T04:55:27.468Z,13.5
2018-06-13T04:56:28.512Z,13.5
2018-06-13T04:57:29.467Z,13.5
2018-06-13T04:58:30.471Z,13.5
2018-06-13T04:59:31.455Z,13.4
2018-06-13T05:00:32.455Z,13.5
2018-06-13T05:01:33.805Z,13.4
2018-06-13T05:02:34.457Z,13.5
2018-06-13T05:03:35.178Z,13.5
2018-06-13T05:04:36.452Z,13.4
2018-06-13T05:05:37.458Z,13.4
2018-06-13T05:06:38.599Z,13.4
2018-06-13T05:07:39.450Z,13.6
2018-06-13T05:08:40.453Z,13.6
2018-06-13T05:09:41.443Z,13.5
2018-06-13T05:10:42.457Z,13.5
2018-06-13T05:11:43.167Z,13.5
2018-06-13T05:12:44.443Z,13.6
2018-06-13T05:13:45.440Z,13.6
2018-06-13T05:14:46.532Z,13.7
2018-06-13T05:15:47.439Z,13.5
2018-06-13T05:16:48.451Z,13.5
2018-06-13T05:17:49.440Z,13.6
2018-06-13T05:18:50.430Z,13.6
2018-06-13T05:19:51.432Z,13.7
2018-06-13T05:20:52.443Z,13.6
2018-06-13T05:21:53.536Z,13.6
2018-06-13T05:22:54.428Z,13.6
2018-06-13T05:23:55.429Z,13.7
2018-06-13T05:24:56.435Z,13.5
2018-06-13T05:25:57.430Z,13.7
2018-06-13T05:26:58.433Z,13.5
2018-06-13T05:27:59.444Z,13.5
2018-06-13T05:29:00.176Z,13.6
2018-06-13T05:30:01.426Z,13.5
2018-06-13T05:31:02.450Z,13.5
2018-06-13T05:32:03.426Z,13.7
2018-06-13T05:33:04.421Z,13.5
2018-06-13T05:34:05.424Z,13.5
2018-06-13T05:35:06.416Z,13.6
2018-06-13T05:36:07.428Z,13.7
2018-06-13T05:37:08.768Z,13.7
2018-06-13T05:38:09.415Z,13.5
2018-06-13T05:39:10.411Z,13.5
2018-06-13T05:40:11.420Z,13.6
2018-06-13T05:41:12.412Z,13.6
2018-06-13T05:42:13.410Z,13.4
2018-06-13T05:43:14.421Z,13.6
2018-06-13T05:44:15.404Z,13.5
2018-06-13T05:45:16.137Z,13.6
2018-06-13T05:46:17.411Z,13.5
2018-06-13T05:47:18.219Z,13.6
2018-06-13T05:48:19.417Z,13.6
2018-06-13T05:49:20.407Z,13.6
2018-06-13T05:50:21.400Z,13.5
2018-06-13T05:51:22.127Z,13.7
2018-06-13T05:52:23.545Z,13.5
2018-06-13T05:53:24.401Z,13.5
2018-06-13T05:54:25.405Z,13.5
2018-06-13T05:55:26.393Z,13.6
2018-06-13T05:56:27.391Z,13.5
2018-06-13T05:57:28.492Z,13.7
2018-06-13T05:58:29.387Z,13.5
2018-06-13T05:59:30.394Z,13.7
2018-06-13T06:00:31.385Z,13.6
2018-06-13T06:01:32.600Z,13.6
2018-06-13T06:02:33.486Z,13.4
2018-06-13T06:03:34.384Z,13.5
2018-06-13T06:04:35.380Z,13.6
2018-06-13T06:05:36.385Z,13.6
2018-06-13T06:06:37.394Z,13.7
2018-06-13T06:07:38.488Z,13.5
2018-06-13T06:08:39.379Z,13.7
2018-06-13T06:09:40.373Z,13.5
2018-06-13T06:10:41.373Z,13.5
2018-06-13T06:11:42.375Z,13.6
2018-06-13T06:12:43.420Z,13.5
2018-06-13T06:13:44.372Z,13.5
2018-06-13T06:14:45.372Z,13.7
2018-06-13T06:15:46.370Z,13.5
2018-06-13T06:16:47.368Z,13.5
2018-06-13T06:17:48.725Z,13.4
2018-06-13T06:18:49.372Z,13.4
2018-06-13T06:19:50.364Z,13.7
2018-06-13T06:20:51.368Z,13.5
2018-06-13T06:21:52.361Z,13.6
2018-06-13T06:22:53.712Z,13.7
2018-06-13T06:23:54.361Z,13.5
2018-06-13T06:24:55.363Z,13.5
2018-06-13T06:25:56.367Z,13.5
2018-06-13T06:26:57.364Z,13.5
2018-06-13T06:27:58.365Z,13.5
2018-06-13T06:28:59.353Z,13.5
2018-06-13T06:30:00.365Z,13.6
2018-06-13T06:31:01.356Z,13.4
2018-06-13T06:32:02.369Z,13.6
2018-06-13T06:33:03.520Z,13.6
2018-06-13T06:34:04.352Z,13.6
2018-06-13T06:35:05.352Z,13.5
2018-06-13T06:36:06.352Z,13.6
2018-06-13T06:37:07.347Z,13.4
2018-06-13T06:38:08.348Z,13.4
2018-06-13T06:39:09.363Z,13.6
2018-06-13T06:40:10.343Z,13.5
2018-06-13T06:41:11.070Z,13.6
2018-06-13T06:42:12.381Z,13.5
2018-06-13T06:43:13.499Z,13.5
2018-06-13T06:44:14.073Z,13.5
2018-06-13T06:45:15.067Z,13.6
2018-06-13T06:46:16.342Z,13.5
2018-06-13T06:47:17.340Z,13.5
2018-06-13T06:48:18.488Z,13.5
2018-06-13T06:49:19.329Z,13.4
2018-06-13T06:50:20.338Z,13.6
2018-06-13T06:51:21.327Z,13.4
2018-06-13T06:52:22.335Z,13.4
2018-06-13T06:53:23.490Z,13.4
2018-06-13T06:54:24.055Z,13.5
2018-06-13T06:55:25.513Z,13.4
2018-06-13T06:56:26.321Z,13.5
2018-06-13T06:57:27.371Z,13.5
2018-06-13T06:58:28.425Z,13.4
2018-06-13T06:59:29.322Z,13.4
2018-06-13T07:00:30.324Z,13.4
2018-06-13T07:01:31.320Z,13.6
2018-06-13T07:02:32.317Z,13.5
2018-06-13T07:03:33.436Z,13.6
2018-06-13T07:04:34.318Z,13.4
2018-06-13T07:05:35.311Z,13.5
2018-06-13T07:06:36.315Z,13.4
2018-06-13T07:07:37.318Z,13.4
2018-06-13T07:08:38.370Z,13.4
2018-06-13T07:09:39.037Z,13.3
2018-06-13T07:10:40.308Z,13.6
2018-06-13T07:11:41.315Z,13.6
2018-06-13T07:12:42.311Z,13.5
2018-06-13T07:13:43.404Z,13.4
2018-06-13T07:14:44.314Z,13.4
2018-06-13T07:15:45.304Z,13.4
2018-06-13T07:16:46.303Z,13.4
2018-06-13T07:17:47.314Z,13.6
2018-06-13T07:18:48.451Z,13.4
2018-06-13T07:19:49.293Z,13.4
2018-06-13T07:20:50.294Z,13.6
2018-06-13T07:21:51.300Z,13.7
2018-06-13T07:22:52.310Z,13.5
2018-06-13T07:23:53.646Z,13.4
2018-06-13T07:24:54.355Z,13.6
2018-06-13T07:25:55.299Z,13.4
2018-06-13T07:26:56.289Z,13.4
2018-06-13T07:27:57.295Z,13.4
2018-06-13T07:28:58.386Z,13.5
2018-06-13T07:29:59.287Z,13.6
2018-06-13T07:31:00.297Z,13.4
2018-06-13T07:32:01.284Z,13.6
2018-06-13T07:33:02.284Z,13.4
2018-06-13T07:34:03.635Z,13.4
2018-06-13T07:35:04.284Z,13.4
2018-06-13T07:36:05.277Z,13.5
2018-06-13T07:37:06.276Z,13.5
2018-06-13T07:38:07.296Z,13.4
2018-06-13T07:39:08.425Z,13.5
2018-06-13T07:40:09.272Z,13.3
2018-06-13T07:41:10.280Z,13.3
2018-06-13T07:42:11.270Z,13.3
2018-06-13T07:43:12.271Z,13.3
2018-06-13T07:44:13.624Z,13.3
2018-06-13T07:45:14.275Z,13.3
2018-06-13T07:46:15.274Z,13.3
2018-06-13T07:47:16.268Z,13.3
2018-06-13T07:48:17.265Z,13.3
2018-06-13T07:49:18.322Z,13.3
2018-06-13T07:50:19.264Z,13.3
2018-06-13T07:51:20.266Z,13.5
2018-06-13T07:52:20.997Z,13.5
2018-06-13T07:53:22.270Z,13.6
2018-06-13T07:54:23.264Z,13.5
2018-06-13T07:55:24.262Z,13.7
2018-06-13T07:56:25.257Z,13.4
2018-06-13T07:57:26.259Z,13.6
2018-06-13T07:58:27.253Z,13.5
2018-06-13T07:59:28.408Z,13.4
2018-06-13T08:00:29.247Z,13.6
2018-06-13T08:01:30.256Z,13.7
2018-06-13T08:02:31.247Z,13.4
2018-06-13T08:03:32.245Z,13.4
2018-06-13T08:04:33.257Z,13.4
2018-06-13T08:05:34.255Z,13.6
2018-06-13T08:06:35.250Z,13.5
2018-06-13T08:07:36.245Z,13.4
2018-06-13T08:08:37.502Z,13.4
2018-06-13T08:09:38.617Z,13.4
2018-06-13T08:10:39.236Z,13.6
2018-06-13T08:11:40.243Z,13.4
2018-06-13T08:12:41.239Z,13.4
2018-06-13T08:13:42.239Z,13.4
2018-06-13T08:14:43.286Z,13.5
2018-06-13T08:15:44.230Z,13.4
2018-06-13T08:16:45.275Z,13.4
2018-06-13T08:17:46.238Z,13.4
2018-06-13T08:18:47.233Z,13.4
2018-06-13T08:19:48.282Z,13.6
2018-06-13T08:20:49.249Z,13.4
2018-06-13T08:21:50.228Z,13.4
2018-06-13T08:22:51.233Z,13.4
2018-06-13T08:23:52.226Z,13.5
2018-06-13T08:24:53.378Z,13.5
2018-06-13T08:25:54.224Z,13.4
2018-06-13T08:26:55.237Z,13.4
2018-06-13T08:27:56.232Z,13.4
2018-06-13T08:28:57.218Z,13.6
2018-06-13T08:29:58.368Z,13.4
2018-06-13T08:30:59.215Z,13.4
2018-06-13T08:32:00.219Z,13.4
2018-06-13T08:33:01.212Z,13.5
2018-06-13T08:34:02.223Z,13.4
2018-06-13T08:35:03.093Z,13.4
2018-06-13T08:36:04.215Z,13.4
2018-06-13T08:37:05.215Z,13.4
2018-06-13T08:38:06.223Z,13.6
2018-06-13T08:39:07.214Z,13.4
2018-06-13T08:40:08.356Z,13.4
2018-06-13T08:41:09.204Z,13.4
2018-06-13T08:42:10.419Z,13.6
2018-06-13T08:43:11.220Z,13.4
2018-06-13T08:44:12.220Z,13.4
2018-06-13T08:45:13.200Z,13.4
2018-06-13T08:46:14.194Z,13.4
2018-06-13T08:47:15.204Z,13.6
2018-06-13T08:48:16.193Z,13.4
2018-06-13T08:49:17.198Z,13.4
2018-06-13T08:50:18.549Z,13.4
2018-06-13T08:51:19.205Z,13.6
2018-06-13T08:52:20.196Z,13.4
2018-06-13T08:53:20.923Z,13.4
2018-06-13T08:54:22.194Z,13.4
2018-06-13T08:55:23.306Z,13.5
2018-06-13T08:56:24.191Z,13.5
2018-06-13T08:57:25.186Z,13.4
2018-06-13T08:58:26.189Z,13.4
2018-06-13T08:59:27.183Z,13.4
2018-06-13T09:00:28.238Z,13.6
2018-06-13T09:01:29.190Z,13.4
2018-06-13T09:02:30.184Z,13.4
2018-06-13T09:03:31.182Z,13.4
2018-06-13T09:04:32.179Z,13.5
2018-06-13T09:05:33.333Z,13.3
2018-06-13T09:06:34.174Z,13.3
2018-06-13T09:07:35.173Z,13.3
2018-06-13T09:08:36.176Z,13.3
2018-06-13T09:09:37.176Z,13.3
2018-06-13T09:10:38.331Z,13.3
2018-06-13T09:11:39.179Z,13.3
2018-06-13T09:12:40.175Z,13.3
2018-06-13T09:13:41.167Z,13.3
2018-06-13T09:14:42.188Z,13.3
2018-06-13T09:15:43.225Z,13.3
2018-06-13T09:16:44.211Z,13.3
2018-06-13T09:17:45.171Z,13.3
2018-06-13T09:18:46.161Z,13.3
2018-06-13T09:19:47.172Z,13.3
2018-06-13T09:20:48.320Z,13.3
2018-06-13T09:21:49.159Z,13.3
2018-06-13T09:22:50.154Z,13.3
2018-06-13T09:23:51.158Z,13.3
2018-06-13T09:24:52.155Z,13.3
2018-06-13T09:25:53.208Z,13.3
2018-06-13T09:26:54.151Z,13.3
2018-06-13T09:27:55.151Z,13.3
2018-06-13T09:28:56.158Z,13.3
2018-06-13T09:29:57.164Z,13.3
2018-06-13T09:30:58.149Z,13.3
2018-06-13T09:31:59.159Z,13.3
2018-06-13T09:33:00.161Z,13.3
2018-06-13T09:34:01.152Z,13.3
2018-06-13T09:35:02.153Z,13.3
2018-06-13T09:36:03.198Z,13.3
2018-06-13T09:37:04.144Z,13.3
2018-06-13T09:38:05.146Z,13.3
2018-06-13T09:39:06.153Z,13.3
2018-06-13T09:40:07.180Z,13.3
2018-06-13T09:41:08.139Z,13.3
2018-06-13T09:42:09.132Z,13.3
2018-06-13T09:43:10.138Z,13.3
2018-06-13T09:44:11.141Z,13.3
2018-06-13T09:45:12.132Z,13.3
2018-06-13T09:46:13.195Z,13.3
2018-06-13T09:47:23.454Z,13.3
2018-06-13T09:48:15.135Z,13.3
2018-06-13T09:49:16.135Z,13.3
2018-06-13T09:50:17.125Z,13.3
2018-06-13T09:51:18.123Z,13.3
2018-06-13T09:52:19.128Z,13.3
2018-06-13T09:53:20.120Z,13.3
2018-06-13T09:54:21.121Z,13.3
2018-06-13T09:55:22.120Z,13.3
2018-06-13T09:56:23.168Z,13.3
2018-06-13T09:57:24.118Z,13.3
2018-06-13T09:58:25.117Z,13.3
2018-06-13T09:59:26.116Z,13.4
2018-06-13T10:00:27.117Z,13.6
2018-06-13T10:01:28.122Z,13.6
2018-06-13T10:02:29.118Z,13.5
2018-06-13T10:03:30.114Z,13.4
2018-06-13T10:04:31.177Z,13.7
2018-06-13T10:05:32.111Z,13.7
2018-06-13T10:06:33.224Z,13.7
2018-06-13T10:07:34.105Z,13.8
2018-06-13T10:08:35.119Z,13.7
2018-06-13T10:09:36.114Z,13.5
2018-06-13T10:10:37.122Z,13.7
2018-06-13T10:11:38.152Z,13.7
2018-06-13T10:12:39.106Z,13.5
2018-06-13T10:13:40.101Z,13.3
2018-06-13T10:14:41.104Z,13.3
2018-06-13T10:15:42.094Z,13.3
2018-06-13T10:16:43.246Z,13.3
2018-06-13T10:17:44.097Z,13.3
2018-06-13T10:18:45.150Z,13.4
2018-06-13T10:19:46.107Z,13.8
2018-06-13T10:20:47.099Z,13.4
2018-06-13T10:21:48.144Z,13.5
2018-06-13T10:22:49.090Z,13.3
2018-06-13T10:23:50.089Z,13.3
2018-06-13T10:24:51.107Z,13.3
2018-06-13T10:25:52.083Z,13.4
2018-06-13T10:26:53.185Z,13.5
2018-06-13T10:27:54.083Z,13.5
2018-06-13T10:28:55.156Z,13.5
2018-06-13T10:29:56.079Z,13.7
2018-06-13T10:30:57.082Z,13.7
2018-06-13T10:31:58.077Z,13.9
2018-06-13T10:32:59.077Z,13.4
2018-06-13T10:34:00.072Z,13.8
2018-06-13T10:35:01.076Z,13.7
2018-06-13T10:36:02.085Z,13.8
2018-06-13T10:37:03.072Z,13.7
2018-06-13T10:38:04.074Z,13.7
2018-06-13T10:39:05.069Z,13.7
2018-06-13T10:40:06.066Z,13.4
2018-06-13T10:41:07.071Z,13.6
2018-06-13T10:42:08.074Z,13.5
2018-06-13T10:43:09.062Z,13.5
2018-06-13T10:44:10.069Z,13.4
2018-06-13T10:45:11.072Z,13.5
2018-06-13T10:46:12.058Z,13.7
2018-06-13T10:47:13.410Z,13.5
2018-06-13T10:48:14.062Z,13.4
2018-06-13T10:49:15.057Z,13.4
2018-06-13T10:50:16.988Z,13.6
2018-06-13T10:51:17.060Z,13.5
2018-06-13T10:52:18.205Z,13.4
2018-06-13T10:53:19.984Z,13.4
2018-06-13T10:54:20.054Z,13.4
2018-06-13T10:55:21.053Z,13.6
2018-06-13T10:56:22.983Z,13.6
2018-06-13T10:57:23.110Z,13.5
2018-06-13T10:58:24.044Z,13.5
2018-06-13T10:59:25.983Z,13.4
2018-06-13T11:00:26.045Z,13.6
2018-06-13T11:01:27.040Z,13.4
2018-06-13T11:02:28.978Z,13.4
2018-06-13T11:03:29.043Z,13.4
2018-06-13T11:04:30.041Z,13.4
2018-06-13T11:05:31.993Z,13.6
2018-06-13T11:06:32.044Z,13.4
2018-06-13T11:07:33.143Z,13.6
2018-06-13T11:08:34.991Z,13.5
2018-06-13T11:09:35.039Z,13.3
2018-06-13T11:10:36.039Z,13.3
2018-06-13T11:11:37.030Z,13.3
2018-06-13T11:12:38.190Z,13.3
2018-06-13T11:13:39.043Z,13.3
2018-06-13T11:14:40.023Z,13.3
2018-06-13T11:15:41.040Z,13.3
2018-06-13T11:16:42.028Z,13.3
2018-06-13T11:17:43.187Z,13.3
2018-06-13T11:18:44.023Z,13.3
2018-06-13T11:19:45.023Z,13.3
2018-06-13T11:20:46.018Z,13.3
2018-06-13T11:21:47.023Z,13.3
2018-06-13T11:22:48.116Z,13.3
2018-06-13T11:23:49.017Z,13.3
2018-06-13T11:24:50.014Z,13.3
2018-06-13T11:25:51.017Z,13.6
2018-06-13T11:26:52.018Z,13.5
2018-06-13T11:27:53.167Z,13.3
2018-06-13T11:28:54.016Z,13.3
2018-06-13T11:29:55.013Z,13.3
2018-06-13T11:30:56.024Z,13.3
2018-06-13T11:31:57.011Z,13.3
2018-06-13T11:32:57.844Z,13.3
2018-06-13T11:33:59.008Z,13.3
2018-06-13T11:34:59.736Z,13.3
2018-06-13T11:36:01.005Z,13.3
2018-06-13T11:37:02.009Z,13.3
2018-06-13T11:38:02.998Z,13.3
2018-06-13T11:39:04.003Z,13.3
2018-06-13T11:40:04.740Z,13.3
2018-06-13T11:41:06.003Z,13.3
2018-06-13T11:42:06.997Z,13.3
2018-06-13T11:43:08.050Z,13.3
2018-06-13T11:44:08.995Z,13.3
2018-06-13T11:45:10.009Z,13.3
2018-06-13T11:46:10.999Z,13.3
2018-06-13T11:47:12.005Z,13.3
2018-06-13T11:48:12.811Z,13.3
2018-06-13T11:49:13.994Z,13.3
2018-06-13T11:50:14.992Z,13.3
2018-06-13T11:51:15.988Z,13.2
2018-06-13T11:52:16.994Z,13.3
2018-06-13T11:53:18.136Z,13.2
2018-06-13T11:54:18.982Z,13.3
2018-06-13T11:55:19.981Z,13.2
2018-06-13T11:56:20.978Z,13.2
2018-06-13T11:57:21.981Z,13.2
2018-06-13T11:58:23.133Z,13.2
2018-06-13T11:59:23.981Z,13.2
2018-06-13T12:00:25.095Z,13.2
2018-06-13T12:01:25.974Z,13.2
2018-06-13T12:02:26.973Z,13.2
2018-06-13T12:03:27.855Z,13.2
2018-06-13T12:04:28.971Z,13.2
2018-06-13T12:05:29.710Z,13.2
2018-06-13T12:06:30.987Z,13.2
2018-06-13T12:07:31.968Z,13.2
2018-06-13T12:08:33.128Z,13.3
2018-06-13T12:09:33.974Z,13.2
2018-06-13T12:10:34.972Z,13.2
2018-06-13T12:11:36.021Z,13.2
2018-06-13T12:12:36.961Z,13.2
2018-06-13T12:13:38.009Z,13.2
2018-06-13T12:14:38.977Z,13.2
2018-06-13T12:15:39.964Z,13.2
2018-06-13T12:16:40.961Z,13.2
2018-06-13T12:17:41.977Z,13.2
2018-06-13T12:18:43.053Z,13.2
2018-06-13T12:19:43.952Z,13.2
2018-06-13T12:20:44.952Z,13.2
2018-06-13T12:21:45.959Z,13.2
2018-06-13T12:22:46.955Z,13.2
2018-06-13T12:23:48.009Z,13.2
2018-06-13T12:24:48.953Z,13.2
2018-06-13T12:25:49.953Z,13.2
2018-06-13T12:26:50.957Z,13.2
2018-06-13T12:27:51.967Z,13.2
2018-06-13T12:28:52.944Z,13.2
2018-06-13T12:29:53.942Z,13.2
2018-06-13T12:30:54.947Z,13.2
2018-06-13T12:31:55.955Z,13.2
2018-06-13T12:32:56.939Z,13.2
2018-06-13T12:33:57.994Z,13.2
2018-06-13T12:34:58.941Z,13.2
2018-06-13T12:35:59.943Z,13.2
2018-06-13T12:37:00.933Z,13.2
2018-06-13T12:38:01.946Z,13.2
2018-06-13T12:39:02.986Z,13.2
2018-06-13T12:40:03.929Z,13.2
2018-06-13T12:41:04.941Z,13.2
2018-06-13T12:42:05.934Z,13.2
2018-06-13T12:43:06.939Z,13.2
2018-06-13T12:44:08.076Z,13.2
2018-06-13T12:45:08.932Z,13.2
2018-06-13T12:46:09.937Z,13.2
2018-06-13T12:47:10.946Z,13.2
2018-06-13T12:48:11.922Z,13.2
2018-06-13T12:49:12.973Z,13.3
2018-06-13T12:50:13.929Z,13.2
2018-06-13T12:51:14.915Z,13.2
2018-06-13T12:52:15.919Z,13.2
2018-06-13T12:53:16.919Z,13.2
2018-06-13T12:54:18.011Z,13.2
2018-06-13T12:55:18.914Z,13.2
2018-06-13T12:56:19.911Z,13.2
2018-06-13T12:57:20.910Z,13.2
2018-06-13T12:58:21.913Z,13.2
2018-06-13T12:59:22.962Z,13.2
2018-06-13T13:00:23.910Z,13.2
2018-06-13T13:01:24.914Z,13.2
2018-06-13T13:02:25.914Z,13.2
2018-06-13T13:03:26.920Z,13.3
2018-06-13T13:04:27.958Z,13.3
2018-06-13T13:05:28.900Z,13.2
2018-06-13T13:06:29.899Z,13.3
2018-06-13T13:07:30.901Z,13.3
2018-06-13T13:08:31.907Z,13.3
2018-06-13T13:09:32.899Z,13.3
2018-06-13T13:10:33.898Z,13.3
2018-06-13T13:11:34.900Z,13.3
2018-06-13T13:12:35.894Z,13.3
2018-06-13T13:13:36.889Z,13.2
2018-06-13T13:14:37.994Z,13.3
2018-06-13T13:15:38.887Z,13.3
2018-06-13T13:16:39.888Z,13.3
2018-06-13T13:17:40.892Z,13.3
2018-06-13T13:18:41.946Z,13.3
2018-06-13T13:19:43.037Z,13.3
2018-06-13T13:20:43.886Z,13.3
2018-06-13T13:21:44.886Z,13.3
2018-06-13T13:22:45.900Z,13.3
2018-06-13T13:23:46.886Z,13.3
2018-06-13T13:24:48.238Z,13.3
2018-06-13T13:25:48.887Z,13.3
2018-06-13T13:26:49.878Z,13.3
2018-06-13T13:27:50.880Z,13.4
2018-06-13T13:28:51.875Z,13.3
2018-06-13T13:29:52.885Z,13.3
2018-06-13T13:30:53.877Z,13.3
2018-06-13T13:31:54.880Z,13.3